Time;durP1;ratioP1;P1;durP2;ratioP2;P2;SDS_P1;SDS_P2;PMS_P1;PMS_P2;Temp;Humidity;BMP_temperature;BMP_pressure;BME280_temperature;BME280_humidity;BME280_pressure;Samples;Min_cycle;Max_cycle;Signal;HPM_P1;HPM_P2
2022/11/26 00:00:13;;;;;;;5.15;2.40;;;7.80;99.90;;;7.81;100.00;102015.31;5182333;28;20041;-74
2022/11/26 00:02:46;;;;;;;8.32;2.75;;;7.90;99.90;;;7.88;100.00;102027.91;5184502;28;20510;-74
2022/11/26 00:05:21;;;;;;;7.68;3.05;;;7.90;99.90;;;7.96;100.00;102025.81;5184475;28;20542;-74
2022/11/26 00:07:58;;;;;;;5.57;2.55;;;8.00;99.90;;;7.98;100.00;102035.50;5183740;28;20052;-74
2022/11/26 00:10:35;;;;;;;7.22;2.80;;;8.00;99.90;;;8.01;100.00;102029.59;5184712;28;20054;-74
2022/11/26 00:13:16;;;;;;;5.28;2.78;;;8.10;99.90;;;8.04;100.00;102041.09;5184594;28;20046;-74
2022/11/26 00:15:48;;;;;;;6.28;2.50;;;8.10;99.90;;;8.08;100.00;102042.16;5185233;28;20042;-74
2022/11/26 00:18:25;;;;;;;5.93;2.60;;;8.10;99.90;;;8.13;100.00;102039.06;5184082;28;20410;-74
2022/11/26 00:21:00;;;;;;;6.20;2.72;;;8.10;99.90;;;8.18;100.00;102043.69;5184632;28;20499;-73
2022/11/26 00:23:32;;;;;;;5.97;2.55;;;8.20;99.90;;;8.24;100.00;102044.97;5184647;28;20064;-74
2022/11/26 00:26:16;;;;;;;5.57;2.70;;;8.30;99.90;;;8.29;100.00;102047.88;5183274;28;20092;-74
2022/11/26 00:28:53;;;;;;;6.45;2.45;;;8.30;99.90;;;8.31;100.00;102051.44;5183482;28;20516;-74
2022/11/26 00:31:25;;;;;;;7.03;3.05;;;8.40;99.90;;;8.29;100.00;102053.97;5184230;28;20046;-73
2022/11/26 00:33:57;;;;;;;5.22;2.53;;;8.40;99.90;;;8.29;100.00;102059.16;5183174;28;20053;-74
2022/11/26 00:36:32;;;;;;;7.10;2.83;;;8.30;99.90;;;8.27;100.00;102065.94;5179059;28;20042;-74
2022/11/26 00:39:07;;;;;;;5.85;2.47;;;8.30;99.90;;;8.24;100.00;102070.06;5175340;28;20450;-74
2022/11/26 00:41:41;;;;;;;6.47;2.58;;;8.30;99.90;;;8.21;100.00;102070.72;5184105;28;20053;-74
2022/11/26 00:44:18;;;;;;;6.82;3.10;;;8.30;99.90;;;8.18;100.00;102075.75;5184030;28;20546;-74
2022/11/26 00:46:51;;;;;;;4.22;2.53;;;8.20;99.90;;;8.17;100.00;102068.75;5184050;28;20038;-74
2022/11/26 00:49:23;;;;;;;6.03;2.58;;;8.20;99.90;;;8.13;100.00;102078.03;5198788;28;20129;-74
2022/11/26 00:51:55;;;;;;;5.05;2.53;;;8.20;99.90;;;8.08;100.00;102075.94;5183937;28;20050;-74
2022/11/26 00:54:28;;;;;;;5.40;2.47;;;8.10;99.90;;;8.05;100.00;102073.16;5182735;28;20060;-74
2022/11/26 00:57:02;;;;;;;12.77;2.85;;;8.10;99.90;;;7.99;100.00;102083.13;5182596;28;20053;-74
2022/11/26 00:59:34;;;;;;;7.68;2.60;;;8.10;99.90;;;7.94;100.00;102094.91;5183481;28;20046;-74
2022/11/26 01:02:07;;;;;;;6.47;2.67;;;8.00;99.90;;;7.85;100.00;102090.91;5183955;28;20050;-74
2022/11/26 01:04:39;;;;;;;5.85;2.72;;;7.90;99.90;;;7.80;100.00;102094.91;5183663;28;20049;-74
2022/11/26 01:07:11;;;;;;;4.82;2.45;;;7.90;99.90;;;7.78;100.00;102093.91;5182644;28;20566;-74
2022/11/26 01:09:46;;;;;;;4.22;2.60;;;7.80;99.90;;;7.76;100.00;102090.31;5183610;28;20443;-74
2022/11/26 01:12:20;;;;;;;5.57;2.67;;;7.80;99.90;;;7.74;100.00;102104.88;5183844;28;20053;-74
2022/11/26 01:14:52;;;;;;;5.63;2.70;;;7.80;99.90;;;7.70;100.00;102102.88;5182322;28;20050;-74
2022/11/26 01:17:24;;;;;;;6.78;3.38;;;7.80;99.90;;;7.66;100.00;102111.25;5182212;28;20056;-73
2022/11/26 01:19:56;;;;;;;5.63;3.03;;;7.70;99.90;;;7.63;100.00;102116.25;5183888;28;20410;-74
2022/11/26 01:22:29;;;;;;;5.68;2.80;;;7.70;99.90;;;7.58;100.00;102121.13;5182751;28;20406;-74
2022/11/26 01:25:01;;;;;;;5.20;2.53;;;7.60;99.90;;;7.54;100.00;102115.59;5188099;28;20046;-74
2022/11/26 01:27:34;;;;;;;8.25;2.75;;;7.60;99.90;;;7.51;100.00;102124.09;5218285;28;20139;-74
2022/11/26 01:30:16;;;;;;;6.57;3.03;;;7.60;99.90;;;7.49;100.00;102124.78;5196374;28;20375;-74
2022/11/26 01:32:49;;;;;;;8.50;3.63;;;7.60;99.90;;;7.50;100.00;102127.50;5179938;28;20510;-69
2022/11/26 01:35:22;;;;;;;7.70;3.60;;;7.60;99.90;;;7.53;100.00;102124.19;5182558;28;20038;-69
2022/11/26 01:37:54;;;;;;;10.27;3.08;;;7.60;99.90;;;7.54;100.00;102126.88;5181166;28;20030;-69
2022/11/26 01:40:49;;;;;;;7.32;3.30;;;7.60;99.90;;;7.52;100.00;102119.81;5181479;28;20404;-69
2022/11/26 01:43:28;;;;;;;6.65;3.35;;;7.60;99.90;;;7.49;100.00;102120.47;5182858;28;20052;-69
2022/11/26 01:46:00;;;;;;;6.07;3.08;;;7.60;99.90;;;7.47;100.00;102132.47;5183037;28;20046;-69
2022/11/26 01:48:34;;;;;;;6.43;2.97;;;7.60;99.90;;;7.45;100.00;102134.06;5183103;28;20048;-69
2022/11/26 01:51:09;;;;;;;6.97;3.03;;;7.50;99.90;;;7.43;100.00;102137.31;5183353;28;20042;-69
2022/11/26 01:53:46;;;;;;;7.43;3.20;;;7.50;99.90;;;7.43;100.00;102137.31;5181987;28;20388;-69
2022/11/26 01:56:31;;;;;;;8.75;3.10;;;7.50;99.90;;;7.45;100.00;102136.66;5183142;28;20376;-69
2022/11/26 01:59:09;;;;;;;8.23;3.35;;;7.50;99.90;;;7.51;100.00;102138.78;5183041;28;20064;-69
2022/11/26 02:01:41;;;;;;;6.65;3.05;;;7.60;99.90;;;7.50;100.00;102137.88;5182876;28;20041;-69
2022/11/26 02:04:17;;;;;;;7.43;3.38;;;7.60;99.90;;;7.53;100.00;102137.16;5186850;28;20184;-69
2022/11/26 02:06:51;;;;;;;9.05;3.53;;;7.60;99.90;;;7.53;100.00;102134.56;5186798;28;20037;-69
2022/11/26 02:09:25;;;;;;;6.75;3.10;;;7.60;99.90;;;7.54;100.00;102138.97;5186880;28;20054;-69
2022/11/26 02:11:58;;;;;;;7.97;3.53;;;7.60;99.90;;;7.54;100.00;102144.16;5186690;28;20417;-69
2022/11/26 02:14:35;;;;;;;6.07;3.30;;;7.60;99.90;;;7.53;100.00;102147.56;5186893;28;20374;-69
2022/11/26 02:17:20;;;;;;;6.78;2.70;;;7.60;99.90;;;7.51;100.00;102142.25;5186890;28;20070;-69
2022/11/26 02:20:41;;;;;;;7.15;2.80;;;7.60;99.90;;;7.50;100.00;102142.16;5185676;28;20057;-69
2022/11/26 02:24:07;;;;;;;6.85;2.85;;;7.60;99.90;;;7.44;100.00;102141.75;5186422;28;20096;-69
2022/11/26 02:27:09;;;;;;;6.03;3.13;;;7.50;99.90;;;7.39;100.00;102144.00;5152698;28;20097;-69
2022/11/26 02:30:00;;;;;;;7.40;2.65;;;7.50;99.90;;;7.31;100.00;102146.09;5186512;28;20512;-69
2022/11/26 02:32:42;;;;;;;8.43;3.53;;;7.40;99.90;;;7.31;100.00;102140.00;5186342;28;20050;-69
2022/11/26 02:35:21;;;;;;;6.57;3.00;;;7.40;99.90;;;7.33;100.00;102135.81;5186591;28;20546;-69
2022/11/26 02:37:56;;;;;;;5.70;2.40;;;7.40;99.90;;;7.33;100.00;102141.00;5185797;28;20162;-69
2022/11/26 02:40:29;;;;;;;5.95;3.13;;;7.40;99.90;;;7.31;100.00;102138.31;5186411;28;20125;-69
2022/11/26 02:43:01;;;;;;;5.68;2.67;;;7.40;99.90;;;7.29;100.00;102141.56;5186165;28;20518;-69
2022/11/26 02:45:38;;;;;;;6.03;2.80;;;7.40;99.90;;;7.26;100.00;102136.19;5186423;28;20413;-69
2022/11/26 02:48:15;;;;;;;6.95;2.63;;;7.40;99.90;;;7.25;100.00;102132.69;5184475;28;20046;-69
2022/11/26 02:50:51;;;;;;;7.90;2.40;;;7.30;99.90;;;7.19;100.00;102132.25;5186082;28;20046;-69
2022/11/26 02:53:26;;;;;;;5.63;2.70;;;7.30;99.90;;;7.14;100.00;102132.72;5186005;28;20054;-69
2022/11/26 02:56:09;;;;;;;6.68;2.63;;;7.20;99.90;;;7.09;100.00;102135.00;5186099;28;20054;-69
2022/11/26 02:58:41;;;;;;;6.63;2.63;;;7.20;99.90;;;7.04;100.00;102138.94;5185294;28;20049;-69
2022/11/26 03:01:23;;;;;;;5.80;2.75;;;7.10;99.90;;;6.99;100.00;102135.16;5186141;28;20569;-69
2022/11/26 03:03:59;;;;;;;5.55;2.60;;;7.10;99.90;;;6.99;100.00;102132.56;5185784;28;20121;-69
2022/11/26 03:06:34;;;;;;;5.03;2.42;;;7.10;99.90;;;6.98;100.00;102129.06;5184591;28;20046;-69
2022/11/26 03:09:07;;;;;;;6.93;2.72;;;7.10;99.90;;;6.97;100.00;102136.72;5185296;28;20426;-69
2022/11/26 03:11:39;;;;;;;4.93;2.50;;;7.00;99.90;;;6.91;100.00;102132.03;5185911;28;20562;-69
2022/11/26 03:14:11;;;;;;;5.30;2.97;;;7.00;99.90;;;6.86;100.00;102132.50;5185842;28;20046;-69
2022/11/26 03:16:44;;;;;;;5.22;2.55;;;7.00;99.90;;;6.80;100.00;102132.94;5185592;28;20038;-69
2022/11/26 03:19:17;;;;;;;6.68;2.65;;;6.90;99.90;;;6.78;100.00;102135.44;5185353;28;20139;-69
2022/11/26 03:21:49;;;;;;;5.35;2.33;;;6.90;99.90;;;6.77;100.00;102140.50;5185385;28;20061;-69
2022/11/26 03:24:21;;;;;;;4.93;2.50;;;6.90;99.90;;;6.75;100.00;102134.31;5185609;28;20053;-69
2022/11/26 03:26:53;;;;;;;5.57;2.63;;;6.90;99.90;;;6.74;100.00;102137.69;5184897;28;20030;-69
2022/11/26 03:29:26;;;;;;;4.57;2.53;;;6.80;99.90;;;6.71;100.00;102138.34;5185211;28;20069;-70
2022/11/26 03:31:59;;;;;;;6.05;2.40;;;6.80;99.90;;;6.69;100.00;102137.34;5185276;28;20050;-69
2022/11/26 03:34:32;;;;;;;5.40;2.40;;;6.80;99.90;;;6.66;100.00;102137.16;5194390;28;20057;-69
2022/11/26 03:37:04;;;;;;;4.28;2.30;;;6.80;99.90;;;6.66;100.00;102139.75;5195640;28;20050;-69
2022/11/26 03:39:36;;;;;;;5.97;2.33;;;6.80;99.90;;;6.61;100.00;102141.09;5181359;28;20060;-69
2022/11/26 03:42:08;;;;;;;6.10;2.72;;;6.70;99.90;;;6.54;100.00;102141.44;5185306;28;20422;-69
2022/11/26 03:44:40;;;;;;;3.90;2.00;;;6.70;99.90;;;6.48;100.00;102143.59;5185167;28;20042;-69
2022/11/26 03:47:14;;;;;;;4.57;2.22;;;6.60;99.90;;;6.38;100.00;102152.38;5185119;28;20038;-69
2022/11/26 03:49:46;;;;;;;4.75;2.42;;;6.50;99.90;;;6.31;100.00;102157.88;5185070;28;20096;-69
2022/11/26 03:52:18;;;;;;;6.95;2.65;;;6.50;99.90;;;6.23;100.00;102167.69;5183670;28;20139;-69
2022/11/26 03:54:50;;;;;;;5.85;2.38;;;6.40;99.90;;;6.15;100.00;102166.22;5184744;28;20141;-69
2022/11/26 03:57:22;;;;;;;5.22;2.17;;;6.30;99.90;;;6.10;100.00;102180.50;5184827;28;20048;-69
2022/11/26 03:59:55;;;;;;;4.75;2.15;;;6.30;99.90;;;6.05;100.00;102180.97;5183591;28;20318;-69
2022/11/26 04:02:28;;;;;;;5.72;2.33;;;6.20;99.90;;;6.01;100.00;102184.13;5184756;28;20507;-69
2022/11/26 04:05:01;;;;;;;5.90;2.50;;;6.20;99.90;;;5.99;100.00;102189.16;5185004;28;20108;-69
2022/11/26 04:07:33;;;;;;;3.95;2.10;;;6.10;99.90;;;6.01;100.00;102190.19;5184190;28;20380;-69
2022/11/26 04:10:06;;;;;;;4.47;2.15;;;6.20;99.90;;;6.00;100.00;102198.75;5184790;28;20045;-69
2022/11/26 04:12:39;;;;;;;4.32;2.08;;;6.20;99.90;;;5.99;100.00;102189.16;5183587;28;20049;-69
2022/11/26 04:15:11;;;;;;;3.05;1.90;;;6.10;99.90;;;5.96;100.00;102205.38;5184663;28;20077;-69
2022/11/26 04:17:44;;;;;;;4.45;2.33;;;6.10;99.90;;;5.92;100.00;102207.59;5183860;28;20042;-70
2022/11/26 04:20:17;;;;;;;5.70;2.22;;;6.10;99.90;;;5.92;100.00;102205.91;5184702;28;20057;-69
2022/11/26 04:22:49;;;;;;;4.97;2.42;;;6.10;99.90;;;5.91;100.00;102213.56;5184391;28;20038;-69
2022/11/26 04:25:21;;;;;;;5.20;2.45;;;6.00;99.90;;;5.89;100.00;102216.00;5183844;28;20074;-69
2022/11/26 04:27:56;;;;;;;6.10;2.80;;;6.00;99.90;;;5.89;100.00;102217.72;5183828;28;20037;-69
2022/11/26 04:30:28;;;;;;;6.10;2.38;;;6.00;99.90;;;5.86;100.00;102225.22;5184230;28;20056;-69
2022/11/26 04:33:02;;;;;;;6.35;2.63;;;6.00;99.90;;;5.80;100.00;102224.75;5184223;28;20499;-69
2022/11/26 04:35:34;;;;;;;4.60;2.33;;;6.00;99.90;;;5.72;100.00;102230.25;5182949;28;20052;-69
2022/11/26 04:38:06;;;;;;;3.83;2.30;;;5.90;99.90;;;5.67;100.00;102228.06;5183796;28;20049;-69
2022/11/26 04:40:38;;;;;;;4.88;2.20;;;5.90;99.90;;;5.62;100.00;102235.50;5184678;28;20045;-69
2022/11/26 04:43:10;;;;;;;3.88;1.88;;;5.80;99.90;;;5.59;100.00;102239.53;5184306;28;20038;-69
2022/11/26 04:45:42;;;;;;;3.63;1.95;;;5.80;99.90;;;5.58;100.00;102237.72;5184001;28;20088;-69
2022/11/26 04:48:16;;;;;;;5.20;2.30;;;5.70;99.90;;;5.58;100.00;102246.38;5183629;28;20049;-69
2022/11/26 04:50:49;;;;;;;3.88;2.03;;;5.70;99.90;;;5.60;100.00;102247.41;5183990;28;20045;-69
2022/11/26 04:53:21;;;;;;;4.90;2.35;;;5.80;99.90;;;5.59;100.00;102255.94;5183667;28;20428;-69
2022/11/26 04:55:53;;;;;;;4.68;2.33;;;5.70;99.90;;;5.55;100.00;102259.09;5184188;28;20046;-69
2022/11/26 04:58:25;;;;;;;4.00;1.83;;;5.70;99.90;;;5.49;100.00;102260.31;5183501;28;20052;-69
2022/11/26 05:00:58;;;;;;;4.47;2.50;;;5.70;99.90;;;5.43;100.00;102260.72;5183936;28;20057;-69
2022/11/26 05:03:31;;;;;;;4.30;2.17;;;5.60;99.90;;;5.38;100.00;102259.44;5182260;28;20050;-69
2022/11/26 05:06:04;;;;;;;5.10;2.20;;;5.60;99.90;;;5.37;100.00;102268.00;5183924;28;20042;-69
2022/11/26 05:08:36;;;;;;;4.03;2.47;;;5.50;99.90;;;5.38;100.00;102264.63;5182066;28;20511;-69
2022/11/26 05:11:08;;;;;;;4.28;2.20;;;5.60;99.90;;;5.43;100.00;102273.66;5183808;28;20052;-69
2022/11/26 05:13:40;;;;;;;4.88;2.17;;;5.60;99.90;;;5.47;100.00;102270.50;5183769;28;20050;-69
2022/11/26 05:16:12;;;;;;;4.15;2.22;;;5.60;99.90;;;5.49;100.00;102274.13;5183671;28;20045;-69
2022/11/26 05:18:46;;;;;;;4.43;2.22;;;5.60;99.90;;;5.55;100.00;102279.78;5183172;28;20056;-69
2022/11/26 05:21:18;;;;;;;4.40;2.20;;;5.70;99.90;;;5.59;100.00;102284.41;5183649;28;20046;-69
2022/11/26 05:23:50;;;;;;;5.80;2.20;;;5.70;99.90;;;5.63;100.00;102289.06;5183612;28;20060;-69
2022/11/26 05:26:22;;;;;;;6.65;2.83;;;5.80;99.90;;;5.64;100.00;102288.25;5183807;28;20046;-69
2022/11/26 05:28:54;;;;;;;4.95;2.58;;;5.80;99.90;;;5.66;100.00;102283.19;5183164;28;20061;-69
2022/11/26 05:31:27;;;;;;;6.10;2.60;;;5.80;99.90;;;5.67;100.00;102275.59;5183732;28;20068;-69
2022/11/26 05:34:00;;;;;;;4.97;2.13;;;5.80;99.90;;;5.72;100.00;102287.16;5183424;28;20046;-69
2022/11/26 05:36:32;;;;;;;4.47;2.20;;;5.90;99.90;;;5.76;100.00;102287.41;5184392;28;20038;-69
2022/11/26 05:39:05;;;;;;;6.53;2.55;;;5.90;99.90;;;5.77;100.00;102287.53;5186673;28;20071;-69
2022/11/26 05:41:37;;;;;;;5.10;2.38;;;5.90;99.90;;;5.75;100.00;102281.34;5187185;28;20409;-69
2022/11/26 05:44:09;;;;;;;5.72;2.15;;;5.90;99.90;;;5.73;100.00;102288.97;5186852;28;20108;-69
2022/11/26 05:46:43;;;;;;;7.32;2.53;;;5.90;99.90;;;5.74;100.00;102297.66;5187590;28;20132;-69
2022/11/26 05:49:16;;;;;;;6.03;2.40;;;5.90;99.90;;;5.72;100.00;102291.44;5186113;28;20136;-72
2022/11/26 05:51:49;;;;;;;6.13;2.30;;;5.90;99.90;;;5.73;100.00;102298.41;5429560;22;20061;-69
2022/11/26 05:54:21;;;;;;;5.45;2.40;;;5.90;99.90;;;5.72;100.00;102309.56;5192613;28;20037;-70
2022/11/26 05:56:53;;;;;;;4.47;2.20;;;5.90;99.90;;;5.69;100.00;102304.16;5188251;28;20509;-71
2022/11/26 05:59:25;;;;;;;5.97;2.65;;;5.90;99.90;;;5.69;100.00;102320.59;5203275;28;20046;-71
2022/11/26 06:01:57;;;;;;;12.27;5.80;;;5.80;99.90;;;5.73;100.00;102309.66;5186834;28;20502;-71
2022/11/26 06:04:31;;;;;;;19.67;10.25;;;5.90;99.90;;;5.79;100.00;102306.66;5186542;28;20544;-71
2022/11/26 06:07:03;;;;;;;19.33;9.65;;;5.90;99.90;;;5.86;100.00;102308.03;5187024;28;20124;-71
2022/11/26 06:09:36;;;;;;;15.80;6.47;;;6.00;99.90;;;5.92;100.00;102308.56;5185557;28;20041;-71
2022/11/26 06:12:08;;;;;;;14.73;6.05;;;6.10;99.90;;;5.95;100.00;102306.22;5186255;28;20056;-71
2022/11/26 06:14:40;;;;;;;12.10;5.03;;;6.10;99.90;;;5.97;100.00;102302.94;5186670;28;20049;-71
2022/11/26 06:17:12;;;;;;;9.68;4.15;;;6.10;99.90;;;5.98;100.00;102309.03;5186907;28;20048;-71
2022/11/26 06:19:46;;;;;;;11.75;4.13;;;6.10;99.90;;;6.01;100.00;102305.78;5186915;28;20100;-71
2022/11/26 06:22:18;;;;;;;8.30;4.28;;;6.20;99.90;;;5.99;100.00;102313.41;5186826;28;20132;-72
2022/11/26 06:24:50;;;;;;;6.20;3.70;;;6.20;99.90;;;5.98;100.00;102309.03;5186322;28;20054;-71
2022/11/26 06:27:22;;;;;;;8.30;3.33;;;6.10;99.90;;;5.97;100.00;102310.72;5186292;28;20053;-72
2022/11/26 06:29:54;;;;;;;6.30;3.33;;;6.10;99.90;;;5.96;100.00;102310.59;5186424;28;20112;-71
2022/11/26 06:32:29;;;;;;;5.65;2.80;;;6.10;99.90;;;5.95;100.00;102316.56;5186647;28;20053;-71
2022/11/26 06:35:02;;;;;;;5.82;2.75;;;6.10;99.90;;;5.92;100.00;102316.31;5186520;28;20048;-71
2022/11/26 06:37:34;;;;;;;6.47;2.67;;;6.10;99.90;;;5.88;100.00;102314.25;5185133;28;20131;-71
2022/11/26 06:40:09;;;;;;;6.88;2.78;;;6.10;99.90;;;5.85;100.00;102316.59;5186524;28;20042;-72
2022/11/26 06:42:41;;;;;;;6.38;2.95;;;6.00;99.90;;;5.81;100.00;102314.56;5186565;28;20041;-71
2022/11/26 06:45:13;;;;;;;7.40;2.80;;;6.00;99.90;;;5.79;100.00;102318.69;5186219;28;20041;-71
2022/11/26 06:47:46;;;;;;;8.90;2.83;;;5.90;99.90;;;5.76;100.00;102318.47;5185648;28;20053;-71
2022/11/26 06:50:22;;;;;;;7.60;3.15;;;5.90;99.90;;;5.70;100.00;102322.38;5185665;28;20054;-71
2022/11/26 06:52:55;;;;;;;7.65;2.50;;;5.90;99.90;;;5.65;100.00;102328.88;5185687;28;20046;-71
2022/11/26 06:55:27;;;;;;;7.00;2.53;;;5.80;99.90;;;5.62;100.00;102331.22;5185855;28;20050;-72
2022/11/26 06:57:59;;;;;;;6.03;2.70;;;5.80;99.90;;;5.59;100.00;102340.41;5186068;28;20045;-71
2022/11/26 07:00:31;;;;;;;6.30;2.72;;;5.80;99.90;;;5.56;100.00;102343.69;5186020;28;20084;-71
2022/11/26 07:03:03;;;;;;;5.47;2.25;;;5.70;99.90;;;5.52;100.00;102345.91;5186160;28;20502;-72
2022/11/26 07:05:37;;;;;;;8.38;2.70;;;5.70;99.90;;;5.49;100.00;102346.56;5185403;28;20461;-60
2022/11/26 07:08:09;;;;;;;6.85;2.67;;;5.70;99.90;;;5.46;100.00;102341.13;5185189;28;20113;-60
2022/11/26 07:10:42;;;;;;;5.25;2.72;;;5.70;99.90;;;5.45;100.00;102349.69;5185027;28;20073;-61
2022/11/26 07:13:14;;;;;;;6.60;2.75;;;5.60;99.90;;;5.43;100.00;102348.66;5185246;28;20041;-61
2022/11/26 07:15:46;;;;;;;5.55;2.70;;;5.60;99.90;;;5.43;100.00;102361.59;5185089;28;20038;-60
2022/11/26 07:18:18;;;;;;;4.68;2.33;;;5.60;99.90;;;5.41;100.00;102365.72;5185018;28;20050;-60
2022/11/26 07:20:51;;;;;;;4.85;2.47;;;5.60;99.90;;;5.40;100.00;102374.25;5185077;28;20053;-60
2022/11/26 07:23:24;;;;;;;5.32;2.55;;;5.60;99.90;;;5.41;100.00;102386.41;5184892;28;20081;-62
2022/11/26 07:25:58;;;;;;;4.70;2.35;;;5.60;99.90;;;5.41;100.00;102389.00;5179871;28;20080;-62
2022/11/26 07:28:31;;;;;;;3.65;2.33;;;5.60;99.90;;;5.41;100.00;102389.00;5184502;28;20064;-61
2022/11/26 07:31:06;;;;;;;4.25;2.08;;;5.60;99.90;;;5.39;100.00;102395.72;5184746;28;20050;-58
2022/11/26 07:33:38;;;;;;;5.40;2.63;;;5.60;99.90;;;5.38;100.00;102399.09;5184552;28;20506;-60
2022/11/26 07:36:17;;;;;;;6.70;2.38;;;5.60;99.90;;;5.36;100.00;102398.09;5184812;28;20047;-59
2022/11/26 07:38:49;;;;;;;5.60;2.63;;;5.60;99.90;;;5.37;100.00;102402.47;5184521;28;20042;-59
2022/11/26 07:41:22;;;;;;;7.45;3.30;;;5.60;99.90;;;5.42;100.00;102403.75;5184514;28;20445;-58
2022/11/26 07:43:54;;;;;;;8.02;3.13;;;5.60;99.90;;;5.51;100.00;102399.31;5184610;28;20045;-59
2022/11/26 07:46:27;;;;;;;7.53;3.03;;;5.70;99.90;;;5.60;100.00;102402.63;5184716;28;20493;-59
2022/11/26 07:48:59;;;;;;;6.38;2.60;;;5.70;99.90;;;5.67;100.00;102407.53;5184086;28;20038;-60
2022/11/26 07:51:35;;;;;;;6.03;3.13;;;5.80;99.90;;;5.77;100.00;102413.44;5184279;28;20050;-59
2022/11/26 07:54:09;;;;;;;9.10;2.92;;;5.90;99.90;;;5.86;100.00;102409.88;5184385;28;20123;-60
2022/11/26 07:56:41;;;;;;;6.32;3.00;;;6.00;99.90;;;5.95;100.00;102414.94;5182979;28;20521;-59
2022/11/26 07:59:13;;;;;;;7.55;2.97;;;6.10;99.90;;;6.06;100.00;102410.59;5183585;28;20042;-58
2022/11/26 08:01:46;;;;;;;7.97;3.58;;;6.20;99.90;;;6.10;100.00;102403.19;5183652;28;20054;-61
2022/11/26 08:04:18;;;;;;;8.57;3.30;;;6.30;99.90;;;6.18;100.00;102396.91;5184069;28;20065;-58
2022/11/26 08:06:51;;;;;;;7.53;3.95;;;6.40;99.90;;;6.25;100.00;102398.28;5184192;28;20053;-60
2022/11/26 08:09:23;;;;;;;10.07;3.33;;;6.40;99.90;;;6.34;100.00;102403.31;5183701;28;20061;-58
2022/11/26 08:11:55;;;;;;;10.13;3.90;;;6.50;99.90;;;6.43;100.00;102401.41;5184084;28;20052;-58
2022/11/26 08:14:27;;;;;;;11.00;5.10;;;6.60;99.90;;;6.50;100.00;102406.28;5183835;28;20068;-58
2022/11/26 08:16:59;;;;;;;11.77;4.40;;;6.70;99.90;;;6.52;100.00;102399.53;5183891;28;20506;-60
2022/11/26 08:19:31;;;;;;;7.80;3.53;;;6.70;99.90;;;6.58;100.00;102404.25;5182423;28;20050;-60
2022/11/26 08:22:05;;;;;;;7.40;3.50;;;6.80;99.90;;;6.66;100.00;102398.00;5172718;28;20507;-60
2022/11/26 08:24:38;;;;;;;7.13;3.10;;;6.90;99.90;;;6.73;100.00;102395.97;5176638;28;20407;-60
2022/11/26 08:27:10;;;;;;;7.95;3.45;;;6.90;99.90;;;6.82;100.00;102400.03;5163628;28;20038;-62
2022/11/26 08:29:42;;;;;;;8.18;3.42;;;7.00;99.90;;;6.90;100.00;102399.81;5157061;28;20058;-62
2022/11/26 08:32:15;;;;;;;9.25;4.55;;;7.10;99.90;;;6.96;100.00;102400.28;5184853;28;20072;-62
2022/11/26 08:34:47;;;;;;;11.43;4.80;;;7.10;99.90;;;7.03;100.00;102406.81;5183870;28;20053;-62
2022/11/26 08:37:20;;;;;;;7.90;4.10;;;7.20;99.90;;;7.07;100.00;102398.50;5176689;28;20046;-62
2022/11/26 08:39:52;;;;;;;8.52;3.22;;;7.20;99.90;;;7.91;100.00;102396.84;5163175;28;20054;-61
2022/11/26 08:42:24;;;;;;;12.15;4.07;;;8.10;99.90;;;9.07;100.00;102407.47;5163089;28;20052;-57
2022/11/26 08:44:56;;;;;;;7.15;3.30;;;9.30;99.90;;;9.05;100.00;102408.13;5163009;28;20057;-55
2022/11/26 08:47:29;;;;;;;6.43;2.40;;;9.40;99.90;;;8.89;100.00;102412.31;5162570;28;20050;-57
2022/11/26 08:50:01;;;;;;;6.50;3.10;;;9.30;99.90;;;8.67;100.00;102414.25;5162768;28;20042;-54
2022/11/26 08:52:34;;;;;;;6.35;2.88;;;9.00;99.90;;;8.49;100.00;102416.53;5163141;28;20050;-54
2022/11/26 08:55:07;;;;;;;8.50;2.92;;;8.80;99.90;;;8.34;100.00;102418.91;5173126;28;20060;-54
2022/11/26 08:57:39;;;;;;;5.45;2.50;;;8.60;99.90;;;8.23;100.00;102426.78;5174792;28;20049;-54
2022/11/26 09:00:12;;;;;;;6.30;2.83;;;8.50;99.90;;;8.11;100.00;102422.50;5182942;28;20042;-55
2022/11/26 09:02:45;;;;;;;6.35;3.03;;;8.30;99.90;;;8.04;100.00;102419.38;5183200;28;20046;-55
2022/11/26 09:05:17;;;;;;;6.95;2.90;;;8.20;99.90;;;7.98;100.00;102424.13;5181093;28;20407;-55
2022/11/26 09:07:50;;;;;;;5.60;2.67;;;8.20;99.90;;;7.95;100.00;102418.72;5182384;28;20048;-58
2022/11/26 09:10:22;;;;;;;5.93;2.72;;;8.10;99.90;;;7.95;100.00;102403.13;5181812;28;20054;-58
2022/11/26 09:12:54;;;;;;;10.90;3.80;;;8.10;99.90;;;7.89;100.00;102412.31;5181903;28;20054;-59
2022/11/26 09:15:26;;;;;;;6.85;3.05;;;8.10;99.90;;;7.92;100.00;102421.09;5178478;28;20038;-59
2022/11/26 09:18:02;;;;;;;7.25;2.97;;;8.10;99.90;;;7.99;100.00;102425.94;5182749;28;20088;-59
2022/11/26 09:20:34;;;;;;;10.00;4.47;;;8.10;99.90;;;8.03;100.00;102425.38;5184102;28;20491;-57
2022/11/26 09:23:07;;;;;;;6.63;3.47;;;8.10;99.90;;;8.12;100.00;102434.69;5184332;28;20050;-56
2022/11/26 09:25:40;;;;;;;8.73;3.60;;;8.20;99.90;;;8.22;100.00;102435.38;5181999;28;20046;-56
2022/11/26 09:28:12;;;;;;;6.65;2.80;;;8.30;99.90;;;8.34;100.00;102437.09;5182342;28;20498;-57
2022/11/26 09:30:44;;;;;;;6.68;2.70;;;8.40;99.90;;;8.50;100.00;102448.63;5179390;28;20491;-56
2022/11/26 09:33:16;;;;;;;8.63;2.85;;;8.50;99.90;;;8.62;100.00;102455.56;5184238;28;20545;-56
2022/11/26 09:35:48;;;;;;;5.82;2.25;;;8.60;99.90;;;8.70;100.00;102449.19;5183987;28;20511;-56
2022/11/26 09:38:22;;;;;;;4.68;2.33;;;8.70;99.90;;;8.77;100.00;102445.31;5183621;28;20557;-57
2022/11/26 09:41:02;;;;;;;6.20;2.35;;;8.80;99.90;;;8.81;100.00;102442.13;5183686;28;20041;-57
2022/11/26 09:43:59;;;;;;;8.02;2.75;;;8.80;99.90;;;8.83;100.00;102445.72;5184128;28;20045;-56
2022/11/26 09:46:37;;;;;;;8.93;3.00;;;8.80;99.90;;;8.91;100.00;102444.53;5183899;28;20052;-55
2022/11/26 09:49:13;;;;;;;5.97;3.47;;;8.90;99.90;;;8.96;100.00;102448.34;5183626;28;20056;-55
2022/11/26 09:51:51;;;;;;;7.40;2.80;;;8.90;99.90;;;9.01;100.00;102451.28;5182688;28;20528;-56
2022/11/26 09:54:29;;;;;;;8.15;2.83;;;9.00;99.90;;;9.13;100.00;102454.72;5178048;28;20042;-55
2022/11/26 09:57:17;;;;;;;6.55;2.72;;;9.10;99.90;;;9.24;100.00;102455.41;5181271;28;20042;-56
2022/11/26 09:59:51;;;;;;;5.68;2.22;;;9.20;99.90;;;9.32;100.00;102463.72;5183989;28;20430;-56
2022/11/26 10:02:24;;;;;;;6.68;2.70;;;9.20;99.90;;;9.35;100.00;102457.03;5177471;28;20049;-56
2022/11/26 10:04:56;;;;;;;5.38;2.25;;;9.30;99.90;;;9.49;100.00;102452.72;5183789;28;20108;-61
2022/11/26 10:07:47;;;;;;;5.88;2.55;;;9.40;99.90;;;9.64;100.00;102453.69;5180032;28;20053;-58
2022/11/26 10:10:28;;;;;;;5.65;2.35;;;9.50;99.90;;;9.76;100.00;102461.41;5177414;28;20050;-57
2022/11/26 10:13:08;;;;;;;8.75;3.03;;;9.70;99.90;;;10.51;100.00;102459.25;5185771;28;20060;-64
2022/11/26 10:15:58;;;;;;;12.23;3.35;;;10.40;99.90;;;11.10;100.00;102448.00;5183729;28;20081;-57
2022/11/26 10:18:40;;;;;;;9.15;2.97;;;11.10;99.90;;;11.07;100.00;102453.03;5182633;28;20046;-56
2022/11/26 10:21:24;;;;;;;9.82;6.20;;;11.10;99.90;;;10.90;100.00;102452.06;5183038;28;20046;-55
2022/11/26 10:23:59;;;;;;;8.27;3.70;;;11.00;99.90;;;10.73;100.00;102444.91;5180162;28;20041;-57
2022/11/26 10:26:35;;;;;;;;;;;10.80;99.90;;;10.58;100.00;102442.28;5187276;28;20509;-57
2022/11/26 10:29:21;;;;;;;7.10;3.40;;;10.70;99.90;;;10.47;100.00;102444.22;5186335;28;20322;-56
2022/11/26 10:31:58;;;;;;;8.25;2.80;;;10.50;99.90;;;10.42;100.00;102440.44;5187302;28;20050;-55
2022/11/26 10:34:39;;;;;;;6.03;2.63;;;10.40;99.90;;;10.39;100.00;102435.03;5183229;28;20074;-56
2022/11/26 10:37:11;;;;;;;8.65;3.05;;;10.40;99.90;;;10.35;100.00;102446.06;5180469;28;20542;-54
2022/11/26 10:39:44;;;;;;;11.18;3.50;;;10.30;99.90;;;10.32;100.00;102451.13;5186929;28;20415;-55
2022/11/26 10:42:22;;;;;;;5.78;2.78;;;10.30;99.90;;;10.38;100.00;102458.41;5201370;28;20475;-55
2022/11/26 10:44:54;;;;;;;10.73;4.63;;;10.30;99.90;;;10.39;100.00;102457.59;5183640;28;20490;-55
2022/11/26 10:47:30;;;;;;;7.15;3.17;;;10.30;99.90;;;10.39;100.00;102452.41;5185046;28;20064;-57